createdAt,value
2023-05-25T00:00:28.862Z,0.00
2023-05-25T00:01:28.862Z,0.00
2023-05-25T00:02:28.968Z,0.00
2023-05-25T00:03:28.934Z,0.00
2023-05-25T00:04:28.905Z,0.00
2023-05-25T00:05:28.828Z,0.00
2023-05-25T00:06:28.821Z,0.00
2023-05-25T00:07:28.841Z,0.00
2023-05-25T00:08:28.827Z,0.00
2023-05-25T00:09:28.817Z,0.00
2023-05-25T00:10:28.796Z,0.00
2023-05-25T00:11:28.779Z,0.00
2023-05-25T00:12:28.778Z,0.00
2023-05-25T00:13:28.768Z,0.00
2023-05-25T00:14:28.755Z,0.00
2023-05-25T00:15:28.750Z,0.00
2023-05-25T00:16:28.750Z,0.00
2023-05-25T00:17:28.738Z,0.00
2023-05-25T00:18:28.734Z,0.00
2023-05-25T00:19:28.731Z,0.00
2023-05-25T00:20:28.773Z,0.00
2023-05-25T00:21:28.706Z,0.00
2023-05-25T00:22:28.720Z,0.00
2023-05-25T00:23:28.693Z,0.00
2023-05-25T00:24:28.683Z,0.00
2023-05-25T00:25:28.677Z,0.00
2023-05-25T00:26:28.667Z,0.00
2023-05-25T00:27:28.669Z,0.00
2023-05-25T00:28:28.653Z,0.00
2023-05-25T00:29:28.650Z,0.00
2023-05-25T00:30:28.638Z,0.00
2023-05-25T00:31:28.721Z,0.00
2023-05-25T00:32:28.651Z,0.00
2023-05-25T00:33:28.621Z,0.00
2023-05-25T00:34:28.611Z,0.00
2023-05-25T00:35:28.617Z,0.00
2023-05-25T00:36:28.606Z,0.00
2023-05-25T00:37:28.604Z,0.00
2023-05-25T00:38:28.583Z,0.00
2023-05-25T00:39:28.584Z,0.00
2023-05-25T00:40:28.561Z,0.00
2023-05-25T00:41:28.588Z,0.00
2023-05-25T00:42:28.550Z,0.00
2023-05-25T00:43:28.542Z,0.00
2023-05-25T00:44:28.535Z,0.00
2023-05-25T00:45:28.527Z,0.00
2023-05-25T00:46:28.579Z,0.00
2023-05-25T00:47:28.575Z,0.00
2023-05-25T00:48:28.512Z,0.00
2023-05-25T00:49:28.500Z,0.00
2023-05-25T00:50:28.491Z,0.00
2023-05-25T00:51:28.482Z,0.00
2023-05-25T00:52:28.496Z,0.00
2023-05-25T00:53:28.469Z,0.00
2023-05-25T00:54:28.463Z,0.00
2023-05-25T00:55:28.456Z,0.00
2023-05-25T00:56:28.461Z,0.00
2023-05-25T00:57:28.446Z,0.00
2023-05-25T00:58:28.434Z,0.00
2023-05-25T00:59:28.423Z,0.00
2023-05-25T01:00:28.416Z,0.00
2023-05-25T01:01:28.460Z,0.00
2023-05-25T01:02:28.411Z,0.00
2023-05-25T01:03:28.505Z,0.00
2023-05-25T01:04:28.400Z,0.00
2023-05-25T01:05:28.380Z,0.00
2023-05-25T01:06:28.373Z,0.00
2023-05-25T01:07:28.366Z,0.00
2023-05-25T01:08:28.359Z,0.00
2023-05-25T01:09:28.351Z,0.00
2023-05-25T01:10:28.341Z,0.00
2023-05-25T01:11:28.366Z,0.00
2023-05-25T01:12:28.325Z,0.00
2023-05-25T01:13:28.321Z,0.00
2023-05-25T01:14:28.311Z,0.00
2023-05-25T01:15:28.303Z,0.00
2023-05-25T01:16:28.367Z,0.00
2023-05-25T01:17:28.359Z,0.00
2023-05-25T01:18:28.289Z,0.00
2023-05-25T01:19:28.272Z,0.00
2023-05-25T01:20:28.290Z,0.00
2023-05-25T01:21:28.258Z,0.00
2023-05-25T01:22:28.264Z,0.00
2023-05-25T01:23:28.241Z,0.00
2023-05-25T01:24:28.235Z,0.00
2023-05-25T01:25:28.239Z,0.00
2023-05-25T01:26:28.219Z,0.00
2023-05-25T01:27:28.309Z,0.00
2023-05-25T01:28:28.202Z,0.00
2023-05-25T01:29:28.193Z,0.00
2023-05-25T01:30:28.185Z,0.00
2023-05-25T01:31:28.208Z,0.00
2023-05-25T01:32:28.174Z,0.00
2023-05-25T01:33:28.164Z,0.00
2023-05-25T01:34:28.170Z,0.00
2023-05-25T01:35:28.187Z,0.00
2023-05-25T01:36:28.151Z,0.00
2023-05-25T01:37:28.139Z,0.00
2023-05-25T01:38:28.127Z,0.00
2023-05-25T01:39:28.122Z,0.00
2023-05-25T01:40:28.107Z,0.00
2023-05-25T01:41:28.107Z,0.00
2023-05-25T01:42:28.090Z,0.00
2023-05-25T01:43:28.083Z,0.00
2023-05-25T01:44:28.076Z,0.00
2023-05-25T01:45:28.071Z,0.00
2023-05-25T01:46:28.111Z,0.00
2023-05-25T01:47:28.083Z,0.00
2023-05-25T01:48:28.045Z,0.00
2023-05-25T01:49:28.179Z,0.00
2023-05-25T01:50:28.026Z,0.00
2023-05-25T01:51:28.024Z,0.00
2023-05-25T01:52:28.038Z,0.00
2023-05-25T01:53:28.004Z,0.00
2023-05-25T01:54:27.994Z,0.00
2023-05-25T01:55:27.989Z,0.00
2023-05-25T01:56:27.981Z,0.00
2023-05-25T01:57:27.972Z,0.00
2023-05-25T01:58:27.966Z,0.00
2023-05-25T01:59:27.953Z,0.00
2023-05-25T02:00:27.946Z,0.00
2023-05-25T02:01:28.002Z,0.00
2023-05-25T02:02:27.965Z,0.00
2023-05-25T02:03:27.929Z,0.00
2023-05-25T02:04:27.954Z,0.00
2023-05-25T02:05:27.996Z,0.00
2023-05-25T02:06:27.900Z,0.00
2023-05-25T02:07:27.899Z,0.00
2023-05-25T02:08:27.888Z,0.00
2023-05-25T02:09:27.920Z,0.00
2023-05-25T02:10:27.868Z,0.00
2023-05-25T02:11:27.867Z,0.00
2023-05-25T02:12:27.853Z,0.00
2023-05-25T02:13:27.867Z,0.00
2023-05-25T02:14:27.840Z,0.00
2023-05-25T02:15:27.830Z,0.00
2023-05-25T02:16:27.947Z,0.00
2023-05-25T02:17:27.888Z,0.00
2023-05-25T02:18:27.822Z,0.00
2023-05-25T02:19:27.798Z,0.00
2023-05-25T02:20:27.835Z,0.00
2023-05-25T02:21:27.782Z,0.00
2023-05-25T02:22:27.775Z,0.00
2023-05-25T02:23:27.763Z,0.00
2023-05-25T02:24:27.755Z,0.00
2023-05-25T02:25:27.754Z,0.00
2023-05-25T02:26:27.742Z,0.00
2023-05-25T02:27:27.736Z,0.00
2023-05-25T02:28:27.726Z,0.00
2023-05-25T02:29:27.716Z,0.00
2023-05-25T02:30:27.722Z,0.00
2023-05-25T02:31:27.738Z,0.00
2023-05-25T02:32:27.735Z,0.00
2023-05-25T02:33:27.686Z,0.00
2023-05-25T02:34:27.679Z,0.00
2023-05-25T02:35:27.674Z,0.00
2023-05-25T02:36:27.658Z,0.00
2023-05-25T02:37:27.663Z,0.00
2023-05-25T02:38:27.643Z,0.00
2023-05-25T02:39:27.642Z,0.00
2023-05-25T02:40:27.647Z,0.00
2023-05-25T02:41:27.627Z,0.00
2023-05-25T02:42:27.613Z,0.00
2023-05-25T02:43:27.602Z,0.00
2023-05-25T02:44:27.624Z,0.00
2023-05-25T02:45:27.592Z,0.00
2023-05-25T02:46:27.604Z,0.00
2023-05-25T02:47:27.588Z,0.00
2023-05-25T02:48:27.559Z,0.00
2023-05-25T02:49:27.551Z,0.00
2023-05-25T02:50:27.549Z,0.00
2023-05-25T02:51:27.534Z,0.00
2023-05-25T02:52:27.524Z,5.63
2023-05-25T02:53:27.525Z,5.63
2023-05-25T02:54:27.522Z,5.63
2023-05-25T02:55:27.509Z,5.63
2023-05-25T02:56:27.511Z,5.63
2023-05-25T02:57:27.489Z,5.63
2023-05-25T02:58:27.476Z,5.63
2023-05-25T02:59:27.464Z,5.63
2023-05-25T03:00:27.516Z,5.63
2023-05-25T03:01:27.504Z,5.63
2023-05-25T03:02:27.478Z,11.25
2023-05-25T03:03:27.458Z,11.25
2023-05-25T03:04:27.423Z,11.25
2023-05-25T03:05:27.419Z,11.25
2023-05-25T03:06:27.416Z,11.25
2023-05-25T03:07:27.400Z,11.25
2023-05-25T03:08:27.395Z,16.88
2023-05-25T03:09:27.382Z,16.88
2023-05-25T03:10:27.373Z,16.88
2023-05-25T03:11:27.366Z,16.88
2023-05-25T03:12:27.357Z,16.88
2023-05-25T03:13:27.351Z,16.88
2023-05-25T03:14:27.344Z,22.50
2023-05-25T03:15:27.336Z,22.50
2023-05-25T03:16:27.360Z,22.50
2023-05-25T03:17:27.360Z,22.50
2023-05-25T03:18:27.308Z,22.50
2023-05-25T03:19:27.299Z,28.13
2023-05-25T03:20:27.306Z,28.13
2023-05-25T03:21:27.294Z,28.13
2023-05-25T03:22:27.280Z,28.13
2023-05-25T03:23:27.266Z,28.13
2023-05-25T03:24:27.266Z,33.75
2023-05-25T03:25:27.255Z,33.75
2023-05-25T03:26:27.255Z,33.75
2023-05-25T03:27:27.247Z,33.75
2023-05-25T03:28:27.226Z,33.75
2023-05-25T03:29:27.215Z,39.38
2023-05-25T03:30:27.209Z,39.38
2023-05-25T03:31:27.229Z,39.38
2023-05-25T03:32:27.260Z,39.38
2023-05-25T03:33:27.184Z,45.00
2023-05-25T03:34:27.186Z,45.00
2023-05-25T03:35:27.175Z,45.00
2023-05-25T03:36:27.161Z,45.00
2023-05-25T03:37:27.152Z,50.63
2023-05-25T03:38:27.143Z,50.63
2023-05-25T03:39:27.134Z,56.25
2023-05-25T03:40:27.122Z,90.00
2023-05-25T03:41:27.120Z,112.50
2023-05-25T03:42:27.112Z,118.13
2023-05-25T03:43:27.107Z,123.75
2023-05-25T03:44:27.097Z,129.38
2023-05-25T03:45:27.089Z,129.38
2023-05-25T03:46:27.100Z,135.00
2023-05-25T03:47:27.103Z,140.63
2023-05-25T03:48:27.063Z,146.25
2023-05-25T03:49:27.051Z,146.25
2023-05-25T03:50:27.048Z,151.88
2023-05-25T03:51:27.036Z,151.88
2023-05-25T03:52:27.025Z,157.50
2023-05-25T03:53:27.018Z,163.13
2023-05-25T03:54:27.010Z,163.13
2023-05-25T03:55:27.001Z,168.75
2023-05-25T03:56:26.992Z,157.50
2023-05-25T03:57:27.162Z,157.50
2023-05-25T03:58:26.979Z,118.13
2023-05-25T03:59:26.971Z,135.00
2023-05-25T04:00:26.962Z,168.75
2023-05-25T04:01:26.953Z,180.00
2023-05-25T04:02:27.013Z,185.63
2023-05-25T04:03:27.022Z,196.88
2023-05-25T04:04:26.970Z,202.50
2023-05-25T04:05:26.922Z,208.13
2023-05-25T04:06:26.925Z,213.75
2023-05-25T04:07:26.907Z,219.38
2023-05-25T04:08:26.897Z,219.38
2023-05-25T04:09:26.899Z,219.38
2023-05-25T04:10:26.892Z,219.38
2023-05-25T04:11:26.878Z,219.38
2023-05-25T04:12:26.887Z,225.00
2023-05-25T04:13:26.901Z,225.00
2023-05-25T04:14:26.873Z,230.63
2023-05-25T04:15:26.850Z,230.63
2023-05-25T04:16:26.879Z,236.25
2023-05-25T04:17:26.856Z,236.25
2023-05-25T04:18:26.843Z,236.25
2023-05-25T04:19:26.835Z,241.88
2023-05-25T04:20:26.868Z,241.88
2023-05-25T04:21:26.809Z,247.50
2023-05-25T04:22:26.801Z,253.13
2023-05-25T04:23:26.799Z,258.75
2023-05-25T04:24:26.787Z,258.75
2023-05-25T04:25:29.402Z,258.75
2023-05-25T04:26:26.794Z,264.38
2023-05-25T04:27:26.771Z,270.00
2023-05-25T04:28:26.759Z,275.63
2023-05-25T04:29:26.757Z,275.63
2023-05-25T04:30:26.742Z,275.63
2023-05-25T04:31:26.767Z,281.25
2023-05-25T04:32:26.783Z,281.25
2023-05-25T04:33:26.729Z,286.88
2023-05-25T04:34:26.732Z,286.88
2023-05-25T04:35:26.716Z,286.88
2023-05-25T04:36:26.741Z,292.50
2023-05-25T04:37:26.698Z,292.50
2023-05-25T04:38:26.693Z,298.13
2023-05-25T04:39:26.694Z,298.13
2023-05-25T04:40:26.679Z,303.75
2023-05-25T04:41:26.671Z,303.75
2023-05-25T04:42:26.671Z,309.38
2023-05-25T04:43:26.664Z,315.00
2023-05-25T04:44:26.660Z,315.00
2023-05-25T04:45:26.655Z,315.00
2023-05-25T04:46:26.732Z,320.63
2023-05-25T04:47:26.641Z,320.63
2023-05-25T04:48:26.675Z,326.25
2023-05-25T04:49:26.622Z,326.25
2023-05-25T04:50:26.614Z,331.88
2023-05-25T04:51:26.608Z,331.88
2023-05-25T04:52:26.606Z,331.88
2023-05-25T04:53:26.599Z,337.50
2023-05-25T04:54:26.610Z,337.50
2023-05-25T04:55:26.586Z,343.13
2023-05-25T04:56:26.579Z,343.13
2023-05-25T04:57:26.579Z,343.13
2023-05-25T04:58:26.571Z,343.13
2023-05-25T04:59:26.569Z,348.75
2023-05-25T05:00:26.562Z,348.75
2023-05-25T05:01:26.705Z,348.75
2023-05-25T05:02:26.556Z,354.38
2023-05-25T05:03:26.563Z,354.38
2023-05-25T05:04:26.538Z,354.38
2023-05-25T05:05:26.539Z,354.38
2023-05-25T05:06:26.536Z,354.38
2023-05-25T05:07:26.519Z,348.75
2023-05-25T05:08:26.515Z,348.75
2023-05-25T05:09:26.512Z,348.75
2023-05-25T05:10:26.508Z,343.13
2023-05-25T05:11:26.498Z,343.13
2023-05-25T05:12:26.533Z,348.75
2023-05-25T05:13:26.493Z,348.75
2023-05-25T05:14:26.484Z,354.38
2023-05-25T05:15:26.481Z,360.00
2023-05-25T05:16:26.499Z,365.63
2023-05-25T05:17:26.539Z,371.25
2023-05-25T05:18:26.466Z,376.88
2023-05-25T05:19:26.459Z,376.88
2023-05-25T05:20:26.527Z,376.88
2023-05-25T05:21:26.450Z,376.88
2023-05-25T05:22:26.452Z,382.50
2023-05-25T05:23:26.441Z,388.13
2023-05-25T05:24:26.438Z,388.13
2023-05-25T05:25:26.435Z,393.75
2023-05-25T05:26:26.430Z,399.38
2023-05-25T05:27:26.457Z,405.00
2023-05-25T05:28:26.419Z,405.00
2023-05-25T05:29:26.418Z,405.00
2023-05-25T05:30:26.415Z,405.00
2023-05-25T05:31:26.441Z,399.38
2023-05-25T05:32:26.415Z,399.38
2023-05-25T05:33:26.531Z,399.38
2023-05-25T05:34:26.450Z,399.38
2023-05-25T05:35:26.405Z,405.00
2023-05-25T05:36:26.390Z,405.00
2023-05-25T05:37:26.384Z,405.00
2023-05-25T05:38:26.444Z,410.63
2023-05-25T05:39:26.371Z,410.63
2023-05-25T05:40:26.372Z,410.63
2023-05-25T05:41:26.371Z,416.25
2023-05-25T05:42:26.371Z,416.25
2023-05-25T05:43:26.361Z,421.88
2023-05-25T05:44:28.947Z,427.50
2023-05-25T05:45:26.362Z,427.50
2023-05-25T05:46:26.383Z,433.13
2023-05-25T05:47:26.359Z,444.38
2023-05-25T05:48:26.347Z,450.00
2023-05-25T05:49:26.355Z,455.63
2023-05-25T05:50:26.343Z,455.63
2023-05-25T05:51:26.338Z,455.63
2023-05-25T05:52:26.339Z,450.00
2023-05-25T05:53:26.336Z,455.63
2023-05-25T05:54:26.330Z,455.63
2023-05-25T05:55:26.346Z,461.25
2023-05-25T05:56:26.324Z,472.50
2023-05-25T05:57:26.322Z,489.38
2023-05-25T05:58:26.322Z,506.25
2023-05-25T05:59:26.316Z,534.38
2023-05-25T06:00:26.318Z,556.88
2023-05-25T06:01:26.309Z,551.25
2023-05-25T06:02:26.380Z,669.38
2023-05-25T06:03:26.343Z,765.00
2023-05-25T06:04:26.308Z,1063.13
2023-05-25T06:05:26.347Z,1445.63
2023-05-25T06:06:26.307Z,1614.38
2023-05-25T06:07:26.312Z,1631.25
2023-05-25T06:08:26.318Z,1631.25
2023-05-25T06:09:26.307Z,1670.63
2023-05-25T06:10:26.301Z,1715.63
2023-05-25T06:11:26.297Z,1738.13
2023-05-25T06:12:26.302Z,1715.63
2023-05-25T06:13:26.296Z,1665.00
2023-05-25T06:14:28.328Z,1614.38
2023-05-25T06:15:26.297Z,1659.38
2023-05-25T06:16:26.342Z,1777.50
2023-05-25T06:17:26.321Z,1861.88
2023-05-25T06:18:26.305Z,1867.50
2023-05-25T06:19:26.296Z,1884.38
2023-05-25T06:20:26.333Z,1895.63
2023-05-25T06:21:26.308Z,1861.88
2023-05-25T06:22:26.341Z,1839.38
2023-05-25T06:23:26.300Z,1884.38
2023-05-25T06:24:26.317Z,1951.88
2023-05-25T06:25:26.294Z,1991.25
2023-05-25T06:26:26.301Z,1985.63
2023-05-25T06:27:26.302Z,1980.00
2023-05-25T06:28:26.299Z,2025.00
2023-05-25T06:29:26.305Z,2070.00
2023-05-25T06:30:26.304Z,2047.50
2023-05-25T06:31:26.345Z,1991.25
2023-05-25T06:32:26.347Z,1957.50
2023-05-25T06:33:26.312Z,1968.75
2023-05-25T06:34:26.309Z,2025.00
2023-05-25T06:35:26.310Z,2103.75
2023-05-25T06:36:27.429Z,2126.25
2023-05-25T06:37:26.308Z,2075.63
2023-05-25T06:38:26.305Z,2047.50
2023-05-25T06:39:26.308Z,2103.75
2023-05-25T06:40:26.315Z,2216.25
2023-05-25T06:41:26.317Z,2300.63
2023-05-25T06:42:26.314Z,2160.00
2023-05-25T06:43:26.321Z,2221.88
2023-05-25T06:44:26.317Z,2188.13
2023-05-25T06:45:26.322Z,2126.25
2023-05-25T06:46:26.361Z,2025.00
2023-05-25T06:47:26.325Z,1985.63
2023-05-25T06:48:26.326Z,2070.00
2023-05-25T06:49:26.329Z,2233.13
2023-05-25T06:50:26.336Z,2351.25
2023-05-25T06:51:26.326Z,2396.25
2023-05-25T06:52:26.334Z,2373.75
2023-05-25T06:53:26.339Z,2311.88
2023-05-25T06:54:26.333Z,2255.63
2023-05-25T06:55:26.346Z,2205.00
2023-05-25T06:56:26.350Z,2210.63
2023-05-25T06:57:26.340Z,2266.88
2023-05-25T06:58:26.342Z,2351.25
2023-05-25T06:59:26.347Z,2430.00
2023-05-25T07:00:26.393Z,2475.00
2023-05-25T07:01:26.401Z,2508.75
2023-05-25T07:02:26.422Z,2525.63
2023-05-25T07:03:26.353Z,2486.25
2023-05-25T07:04:26.357Z,2435.63
2023-05-25T07:05:26.401Z,2379.38
2023-05-25T07:06:26.398Z,2390.63
2023-05-25T07:07:26.361Z,2452.50
2023-05-25T07:08:26.370Z,2553.75
2023-05-25T07:09:26.378Z,2694.38
2023-05-25T07:10:26.417Z,2733.75
2023-05-25T07:11:26.377Z,2700.00
2023-05-25T07:12:26.396Z,2643.75
2023-05-25T07:13:26.393Z,2621.25
2023-05-25T07:14:26.393Z,2643.75
2023-05-25T07:15:26.394Z,2626.88
2023-05-25T07:16:26.452Z,2508.75
2023-05-25T07:17:26.477Z,2413.13
2023-05-25T07:18:26.405Z,2362.50
2023-05-25T07:19:26.404Z,2396.25
2023-05-25T07:20:26.521Z,2446.88
2023-05-25T07:21:26.413Z,2536.88
2023-05-25T07:22:26.412Z,2666.25
2023-05-25T07:23:26.442Z,2790.00
2023-05-25T07:24:26.416Z,2925.00
2023-05-25T07:25:26.432Z,2919.38
2023-05-25T07:26:26.427Z,2891.25
2023-05-25T07:27:26.428Z,2818.13
2023-05-25T07:28:26.442Z,2773.13
2023-05-25T07:29:26.434Z,2790.00
2023-05-25T07:30:26.438Z,2840.63
2023-05-25T07:31:26.496Z,2941.88
2023-05-25T07:32:26.461Z,3071.25
2023-05-25T07:33:26.454Z,3161.25
2023-05-25T07:34:27.814Z,3223.13
2023-05-25T07:35:26.465Z,3189.38
2023-05-25T07:36:26.464Z,3082.50
2023-05-25T07:37:26.468Z,2958.75
2023-05-25T07:38:26.503Z,2801.25
2023-05-25T07:39:26.474Z,2688.75
2023-05-25T07:40:26.465Z,2722.50
2023-05-25T07:41:26.474Z,2790.00
2023-05-25T07:42:26.484Z,2902.50
2023-05-25T07:43:26.484Z,2981.25
2023-05-25T07:44:26.491Z,2975.63
2023-05-25T07:45:26.489Z,2919.38
2023-05-25T07:46:26.564Z,2801.25
2023-05-25T07:47:26.519Z,2818.13
2023-05-25T07:48:26.496Z,2835.00
2023-05-25T07:49:26.497Z,2829.38
2023-05-25T07:50:26.498Z,2840.63
2023-05-25T07:51:26.518Z,2835.00
2023-05-25T07:52:26.502Z,2835.00
2023-05-25T07:53:26.515Z,2812.50
2023-05-25T07:54:26.520Z,2745.00
2023-05-25T07:55:26.517Z,2795.63
2023-05-25T07:56:26.517Z,2868.75
2023-05-25T07:57:26.555Z,3003.75
2023-05-25T07:58:26.542Z,3144.38
2023-05-25T07:59:26.522Z,3240.00
2023-05-25T08:00:26.533Z,3296.25
2023-05-25T08:01:27.120Z,3279.38
2023-05-25T08:02:26.643Z,3189.38
2023-05-25T08:03:39.793Z,3150.00
2023-05-25T08:04:26.594Z,3071.25
2023-05-25T08:05:26.542Z,2958.75
2023-05-25T08:06:26.548Z,2936.25
2023-05-25T08:07:26.552Z,3026.25
2023-05-25T08:08:26.559Z,3127.50
2023-05-25T08:09:26.558Z,3161.25
2023-05-25T08:10:26.555Z,3223.13
2023-05-25T08:11:26.560Z,3273.75
2023-05-25T08:12:46.169Z,3352.50
2023-05-25T08:13:26.584Z,3352.50
2023-05-25T08:14:26.572Z,3335.63
2023-05-25T08:15:26.587Z,3346.88
2023-05-25T08:16:26.597Z,2638.13
2023-05-25T08:17:26.611Z,1181.25
2023-05-25T08:18:26.580Z,511.88
2023-05-25T08:19:26.580Z,506.25
2023-05-25T08:20:26.633Z,517.50
2023-05-25T08:21:26.583Z,528.75
2023-05-25T08:22:26.590Z,540.00
2023-05-25T08:23:26.624Z,551.25
2023-05-25T08:24:26.595Z,579.38
2023-05-25T08:25:26.654Z,601.88
2023-05-25T08:26:38.323Z,618.75
2023-05-25T08:27:26.598Z,646.88
2023-05-25T08:28:26.600Z,652.50
2023-05-25T08:29:26.602Z,680.63
2023-05-25T08:30:26.607Z,736.88
2023-05-25T08:31:26.673Z,714.38
2023-05-25T08:32:26.614Z,708.75
2023-05-25T08:33:26.608Z,663.75
2023-05-25T08:34:26.606Z,646.88
2023-05-25T08:35:26.609Z,635.63
2023-05-25T08:36:26.608Z,590.63
2023-05-25T08:37:26.617Z,562.50
2023-05-25T08:38:26.614Z,528.75
2023-05-25T08:39:26.611Z,495.00
2023-05-25T08:40:26.612Z,483.75
2023-05-25T08:41:26.630Z,444.38
2023-05-25T08:42:26.614Z,421.88
2023-05-25T08:43:26.634Z,399.38
2023-05-25T08:44:26.614Z,393.75
2023-05-25T08:45:34.310Z,382.50
2023-05-25T08:46:26.613Z,388.13
2023-05-25T08:47:26.626Z,444.38
2023-05-25T08:48:40.150Z,523.13
2023-05-25T08:49:26.619Z,433.13
2023-05-25T08:50:26.618Z,3105.00
2023-05-25T08:51:26.611Z,500.63
2023-05-25T08:52:26.629Z,551.25
2023-05-25T08:53:26.638Z,1670.63
2023-05-25T08:54:26.616Z,433.13
2023-05-25T08:55:26.619Z,399.38
2023-05-25T08:56:26.621Z,410.63
2023-05-25T08:57:26.612Z,2806.88
2023-05-25T08:58:26.604Z,1091.25
2023-05-25T08:59:26.613Z,444.38
2023-05-25T09:00:26.610Z,427.50
2023-05-25T09:01:26.655Z,438.75
2023-05-25T09:02:26.642Z,517.50
2023-05-25T09:03:26.773Z,450.00
2023-05-25T09:04:26.611Z,472.50
2023-05-25T09:05:26.614Z,517.50
2023-05-25T09:06:26.603Z,506.25
2023-05-25T09:07:26.606Z,478.13
2023-05-25T09:08:26.604Z,455.63
2023-05-25T09:09:26.604Z,427.50
2023-05-25T09:10:26.604Z,388.13
2023-05-25T09:11:37.269Z,360.00
2023-05-25T09:12:26.600Z,354.38
2023-05-25T09:13:26.666Z,365.63
2023-05-25T09:14:26.603Z,382.50
2023-05-25T09:15:26.599Z,382.50
2023-05-25T09:16:26.641Z,376.88
2023-05-25T09:17:26.614Z,354.38
2023-05-25T09:18:26.618Z,360.00
2023-05-25T09:19:26.594Z,348.75
2023-05-25T09:20:26.632Z,337.50
2023-05-25T09:21:26.596Z,326.25
2023-05-25T09:22:26.602Z,320.63
2023-05-25T09:23:26.592Z,320.63
2023-05-25T09:24:26.592Z,320.63
2023-05-25T09:25:26.589Z,315.00
2023-05-25T09:26:26.596Z,320.63
2023-05-25T09:27:26.589Z,315.00
2023-05-25T09:28:27.699Z,309.38
2023-05-25T09:29:26.588Z,303.75
2023-05-25T09:30:26.586Z,303.75
2023-05-25T09:31:26.622Z,298.13
2023-05-25T09:32:26.839Z,298.13
2023-05-25T09:33:26.596Z,292.50
2023-05-25T09:34:26.582Z,292.50
2023-05-25T09:35:26.581Z,286.88
2023-05-25T09:36:26.620Z,286.88
2023-05-25T09:37:26.661Z,281.25
2023-05-25T09:38:26.983Z,275.63
2023-05-25T09:39:26.589Z,270.00
2023-05-25T09:40:26.586Z,270.00
2023-05-25T09:41:26.577Z,264.38
2023-05-25T09:42:26.568Z,264.38
2023-05-25T09:43:40.760Z,264.38
2023-05-25T09:44:26.561Z,270.00
2023-05-25T09:45:26.556Z,270.00
2023-05-25T09:46:26.650Z,270.00
2023-05-25T09:47:26.572Z,275.63
2023-05-25T09:48:26.556Z,281.25
2023-05-25T09:49:26.550Z,292.50
2023-05-25T09:50:26.558Z,298.13
2023-05-25T09:51:26.542Z,298.13
2023-05-25T09:52:26.548Z,298.13
2023-05-25T09:53:26.538Z,303.75
2023-05-25T09:54:26.535Z,309.38
2023-05-25T09:55:31.699Z,337.50
2023-05-25T09:56:26.530Z,360.00
2023-05-25T09:57:26.532Z,365.63
2023-05-25T09:58:26.521Z,343.13
2023-05-25T09:59:26.523Z,331.88
2023-05-25T10:00:26.523Z,348.75
2023-05-25T10:01:26.565Z,382.50
2023-05-25T10:02:26.540Z,405.00
2023-05-25T10:03:26.523Z,421.88
2023-05-25T10:04:26.555Z,410.63
2023-05-25T10:05:26.509Z,427.50
2023-05-25T10:06:26.509Z,393.75
2023-05-25T10:07:26.500Z,354.38
2023-05-25T10:08:28.895Z,331.88
2023-05-25T10:09:26.504Z,320.63
2023-05-25T10:10:26.499Z,303.75
2023-05-25T10:11:26.525Z,292.50
2023-05-25T10:12:26.494Z,303.75
2023-05-25T10:13:26.491Z,286.88
2023-05-25T10:14:29.145Z,303.75
2023-05-25T10:15:26.484Z,270.00
2023-05-25T10:16:26.558Z,286.88
2023-05-25T10:17:26.598Z,286.88
2023-05-25T10:18:26.578Z,309.38
2023-05-25T10:19:26.470Z,309.38
2023-05-25T10:20:29.328Z,292.50
2023-05-25T10:21:26.470Z,275.63
2023-05-25T10:22:26.544Z,258.75
2023-05-25T10:23:26.472Z,258.75
2023-05-25T10:24:26.489Z,247.50
2023-05-25T10:25:26.462Z,258.75
2023-05-25T10:26:26.461Z,258.75
2023-05-25T10:27:27.765Z,264.38
2023-05-25T10:28:26.455Z,275.63
2023-05-25T10:29:26.457Z,281.25
2023-05-25T10:30:26.446Z,286.88
2023-05-25T10:31:26.517Z,303.75
2023-05-25T10:32:26.553Z,309.38
2023-05-25T10:33:26.459Z,298.13
2023-05-25T10:34:26.454Z,303.75
2023-05-25T10:35:26.434Z,320.63
2023-05-25T10:36:26.442Z,337.50
2023-05-25T10:37:26.476Z,371.25
2023-05-25T10:38:26.430Z,393.75
2023-05-25T10:39:26.428Z,399.38
2023-05-25T10:40:26.418Z,405.00
2023-05-25T10:41:26.419Z,410.63
2023-05-25T10:42:26.422Z,410.63
2023-05-25T10:43:26.420Z,399.38
2023-05-25T10:44:26.423Z,371.25
2023-05-25T10:45:26.409Z,388.13
2023-05-25T10:46:26.433Z,360.00
2023-05-25T10:47:26.474Z,309.38
2023-05-25T10:48:26.407Z,309.38
2023-05-25T10:49:26.400Z,286.88
2023-05-25T10:50:26.399Z,275.63
2023-05-25T10:51:26.394Z,309.38
2023-05-25T10:52:26.393Z,303.75
2023-05-25T10:53:26.405Z,298.13
2023-05-25T10:54:26.389Z,298.13
2023-05-25T10:55:26.384Z,286.88
2023-05-25T10:56:26.385Z,298.13
2023-05-25T10:57:26.435Z,292.50
2023-05-25T10:58:26.379Z,281.25
2023-05-25T10:59:26.377Z,281.25
2023-05-25T11:00:26.404Z,275.63
2023-05-25T11:01:26.443Z,275.63
2023-05-25T11:02:26.386Z,281.25
2023-05-25T11:03:26.376Z,281.25
2023-05-25T11:04:26.439Z,303.75
2023-05-25T11:05:26.400Z,326.25
2023-05-25T11:06:26.359Z,298.13
2023-05-25T11:07:26.353Z,337.50
2023-05-25T11:08:26.362Z,343.13
2023-05-25T11:09:26.405Z,343.13
2023-05-25T11:10:26.355Z,343.13
2023-05-25T11:11:26.351Z,343.13
2023-05-25T11:12:26.350Z,348.75
2023-05-25T11:13:26.349Z,326.25
2023-05-25T11:14:26.349Z,326.25
2023-05-25T11:15:26.343Z,365.63
2023-05-25T11:16:26.370Z,315.00
2023-05-25T11:17:26.357Z,320.63
2023-05-25T11:18:26.341Z,348.75
2023-05-25T11:19:26.338Z,360.00
2023-05-25T11:20:26.350Z,365.63
2023-05-25T11:21:26.330Z,376.88
2023-05-25T11:22:26.334Z,382.50
2023-05-25T11:23:26.342Z,365.63
2023-05-25T11:24:26.342Z,365.63
2023-05-25T11:25:26.331Z,399.38
2023-05-25T11:26:26.339Z,433.13
2023-05-25T11:27:26.332Z,433.13
2023-05-25T11:28:26.317Z,427.50
2023-05-25T11:29:26.314Z,450.00
2023-05-25T11:30:26.314Z,455.63
2023-05-25T11:31:26.398Z,455.63
2023-05-25T11:32:26.435Z,450.00
2023-05-25T11:33:26.308Z,478.13
2023-05-25T11:34:26.305Z,478.13
2023-05-25T11:35:26.304Z,500.63
2023-05-25T11:36:26.297Z,483.75
2023-05-25T11:37:26.301Z,506.25
2023-05-25T11:38:26.296Z,523.13
2023-05-25T11:39:26.304Z,511.88
2023-05-25T11:40:26.305Z,495.00
2023-05-25T11:41:26.342Z,483.75
2023-05-25T11:42:26.330Z,478.13
2023-05-25T11:43:26.300Z,478.13
2023-05-25T11:44:26.290Z,489.38
2023-05-25T11:45:26.284Z,450.00
2023-05-25T11:46:26.321Z,455.63
2023-05-25T11:47:26.315Z,455.63
2023-05-25T11:48:26.277Z,450.00
2023-05-25T11:49:26.279Z,427.50
2023-05-25T11:50:26.275Z,405.00
2023-05-25T11:51:26.275Z,399.38
2023-05-25T11:52:26.282Z,393.75
2023-05-25T11:53:26.270Z,399.38
2023-05-25T11:54:26.290Z,405.00
2023-05-25T11:55:26.265Z,405.00
2023-05-25T11:56:35.060Z,382.50
2023-05-25T11:57:26.266Z,371.25
2023-05-25T11:58:26.263Z,416.25
2023-05-25T11:59:27.728Z,427.50
2023-05-25T12:00:26.264Z,326.25
2023-05-25T12:01:26.259Z,337.50
2023-05-25T12:02:26.295Z,354.38
2023-05-25T12:03:26.313Z,365.63
2023-05-25T12:04:26.293Z,371.25
2023-05-25T12:05:26.262Z,382.50
2023-05-25T12:06:26.245Z,371.25
2023-05-25T12:07:26.382Z,348.75
2023-05-25T12:08:26.243Z,354.38
2023-05-25T12:09:26.240Z,360.00
2023-05-25T12:10:26.245Z,320.63
2023-05-25T12:11:26.233Z,303.75
2023-05-25T12:12:26.231Z,264.38
2023-05-25T12:13:26.228Z,258.75
2023-05-25T12:14:26.224Z,247.50
2023-05-25T12:15:26.229Z,241.88
2023-05-25T12:16:26.239Z,253.13
2023-05-25T12:17:26.245Z,281.25
2023-05-25T12:18:26.214Z,292.50
2023-05-25T12:19:26.207Z,286.88
2023-05-25T12:20:26.241Z,275.63
2023-05-25T12:21:26.216Z,258.75
2023-05-25T12:22:26.217Z,253.13
2023-05-25T12:23:26.202Z,286.88
2023-05-25T12:24:26.203Z,264.38
2023-05-25T12:25:27.366Z,219.38
2023-05-25T12:26:26.197Z,191.25
2023-05-25T12:27:26.193Z,180.00
2023-05-25T12:28:26.196Z,174.38
2023-05-25T12:29:26.225Z,168.75
2023-05-25T12:30:26.193Z,174.38
2023-05-25T12:31:26.231Z,174.38
2023-05-25T12:32:26.224Z,174.38
2023-05-25T12:33:26.182Z,180.00
2023-05-25T12:34:26.177Z,191.25
2023-05-25T12:35:26.177Z,230.63
2023-05-25T12:36:26.171Z,208.13